createdAt,value
2018-08-18T00:02:17.836Z,9.50
2018-08-18T00:07:21.849Z,7.67
2018-08-18T00:12:28.756Z,6.90
2018-08-18T00:17:33.134Z,8.37
2018-08-18T00:22:37.155Z,6.63
2018-08-18T00:27:40.993Z,8.03
2018-08-18T00:32:45.210Z,7.87
2018-08-18T00:37:49.241Z,8.53
2018-08-18T00:42:53.274Z,7.10
2018-08-18T00:47:57.305Z,7.73
2018-08-18T00:53:01.333Z,6.93
2018-08-18T00:58:08.541Z,8.57
2018-08-18T01:03:12.593Z,6.70
2018-08-18T01:08:16.380Z,6.73
2018-08-18T01:13:20.504Z,6.77
2018-08-18T01:18:24.440Z,7.20
2018-08-18T01:23:28.465Z,6.87
2018-08-18T01:28:33.085Z,8.73
2018-08-18T01:33:38.098Z,6.77
2018-08-18T01:38:42.122Z,7.93
2018-08-18T01:43:47.156Z,7.27
2018-08-18T01:48:50.946Z,9.63
2018-08-18T01:53:54.988Z,10.20
2018-08-18T01:58:58.776Z,8.17
2018-08-18T02:04:02.857Z,7.00
2018-08-18T02:09:07.538Z,7.03
2018-08-18T02:14:15.216Z,7.67
2018-08-18T02:19:19.225Z,8.43
2018-08-18T02:24:23.236Z,7.47
2018-08-18T02:29:27.382Z,7.73
2018-08-18T02:34:31.402Z,9.83
2018-08-18T02:39:35.781Z,7.70
2018-08-18T02:44:39.828Z,8.13
2018-08-18T02:49:47.144Z,10.23
2018-08-18T02:54:55.830Z,9.40
2018-08-18T03:00:01.018Z,8.57
2018-08-18T03:05:05.725Z,9.10
2018-08-18T03:10:18.486Z,12.47
2018-08-18T03:15:53.709Z,8.33
2018-08-18T03:20:57.576Z,7.90
2018-08-18T03:26:01.581Z,8.40
2018-08-18T03:31:06.421Z,8.57
2018-08-18T03:36:34.082Z,9.47
2018-08-18T03:41:38.153Z,10.33
2018-08-18T03:46:49.039Z,8.07
2018-08-18T03:51:54.210Z,7.90
2018-08-18T03:56:58.318Z,8.35
2018-08-18T04:02:02.539Z,8.17
2018-08-18T04:07:07.836Z,7.90
2018-08-18T04:12:11.725Z,9.28
2018-08-18T04:17:29.908Z,8.85
2018-08-18T04:22:34.268Z,9.47
2018-08-18T04:27:43.613Z,8.47
2018-08-18T04:32:58.949Z,8.10
2018-08-18T04:38:04.138Z,8.60
2018-08-18T04:43:08.196Z,10.37
2018-08-18T04:48:28.400Z,9.30
2018-08-18T04:53:33.458Z,8.10
2018-08-18T04:58:37.519Z,8.53
2018-08-18T05:03:59.537Z,8.10
2018-08-18T05:09:05.521Z,8.50
2018-08-18T05:14:09.608Z,8.00
2018-08-18T05:19:13.690Z,8.20
2018-08-18T05:24:22.936Z,8.60
2018-08-18T05:29:27.053Z,10.63
2018-08-18T05:34:31.232Z,9.30
2018-08-18T05:39:35.093Z,7.17
2018-08-18T05:44:39.189Z,7.20
2018-08-18T05:49:43.016Z,6.28
2018-08-18T05:54:47.136Z,6.53
2018-08-18T05:59:50.973Z,6.70
2018-08-18T06:04:54.867Z,6.55
2018-08-18T06:09:58.752Z,6.93
2018-08-18T06:15:03.877Z,8.70
2018-08-18T06:20:08.325Z,6.17
2018-08-18T06:25:12.493Z,6.47
2018-08-18T06:30:16.619Z,5.97
2018-08-18T06:35:20.440Z,5.73
2018-08-18T06:40:25.581Z,5.93
2018-08-18T06:45:29.782Z,4.37
2018-08-18T06:50:39.190Z,8.83
2018-08-18T06:55:43.978Z,5.53
2018-08-18T07:00:48.101Z,5.23
2018-08-18T07:05:52.213Z,5.13
2018-08-18T07:10:56.048Z,8.13
2018-08-18T07:15:59.864Z,6.07
2018-08-18T07:21:03.994Z,5.17
2018-08-18T07:26:08.464Z,5.20
2018-08-18T07:31:12.452Z,6.07
2018-08-18T07:36:16.289Z,5.50
2018-08-18T07:41:20.971Z,5.25
2018-08-18T07:46:26.352Z,7.17
2018-08-18T07:51:30.358Z,4.90
2018-08-18T07:56:34.882Z,6.43
2018-08-18T08:01:38.966Z,6.33
2018-08-18T08:06:43.113Z,6.33
2018-08-18T08:11:47.012Z,7.47
2018-08-18T08:16:51.171Z,4.67
2018-08-18T08:21:55.092Z,5.77
2018-08-18T08:26:58.974Z,8.27
2018-08-18T08:32:03.164Z,8.53
2018-08-18T08:37:07.450Z,8.93
2018-08-18T08:42:11.472Z,7.90
2018-08-18T08:47:15.322Z,6.83
2018-08-18T08:52:19.605Z,8.33
2018-08-18T08:57:23.685Z,7.27
2018-08-18T09:02:27.826Z,6.78
2018-08-18T09:07:31.965Z,6.20
2018-08-18T09:12:35.956Z,6.00
2018-08-18T09:17:40.111Z,6.40
2018-08-18T09:22:57.038Z,5.22
2018-08-18T09:28:02.356Z,7.12
2018-08-18T09:33:07.145Z,6.00
2018-08-18T09:38:11.070Z,8.45
2018-08-18T09:43:19.152Z,6.62
2018-08-18T09:48:23.631Z,6.47
2018-08-18T09:53:27.520Z,7.00
2018-08-18T09:58:31.605Z,8.43
2018-08-18T10:03:35.793Z,5.67
2018-08-18T10:08:39.608Z,7.33
2018-08-18T10:13:43.424Z,4.70
2018-08-18T10:18:49.109Z,6.47
2018-08-18T10:23:52.936Z,4.73
2018-08-18T10:29:15.176Z,5.83
2018-08-18T10:34:23.133Z,5.00
2018-08-18T10:39:27.035Z,5.10
2018-08-18T10:44:31.107Z,5.00
2018-08-18T10:49:46.249Z,5.58
2018-08-18T10:54:50.332Z,2.67
2018-08-18T10:59:54.180Z,5.70
2018-08-18T11:04:58.141Z,7.13
2018-08-18T11:10:02.294Z,4.63
2018-08-18T11:15:10.584Z,4.50
2018-08-18T11:20:16.103Z,6.47
2018-08-18T11:25:23.904Z,3.87
2018-08-18T11:30:27.899Z,6.70
2018-08-18T11:35:32.586Z,6.20
2018-08-18T11:40:36.697Z,5.10
2018-08-18T11:45:41.266Z,4.67
2018-08-18T11:50:46.010Z,4.03
2018-08-18T11:55:50.108Z,3.03
2018-08-18T12:00:58.344Z,4.50
2018-08-18T12:06:05.064Z,4.10
2018-08-18T12:11:09.226Z,3.30
2018-08-18T12:16:15.234Z,2.90
2018-08-18T12:21:19.336Z,2.60
2018-08-18T12:26:23.528Z,3.40
2018-08-18T12:31:28.474Z,2.37
2018-08-18T12:36:32.661Z,1.93
2018-08-18T12:41:36.678Z,3.67
2018-08-18T12:46:46.118Z,4.33
2018-08-18T12:51:50.663Z,2.93
2018-08-18T12:56:54.806Z,2.40
2018-08-18T13:01:58.649Z,5.57
2018-08-18T13:07:03.077Z,2.90
2018-08-18T13:12:07.149Z,3.37
2018-08-18T13:17:11.309Z,4.83
2018-08-18T13:22:15.388Z,4.77
2018-08-18T13:27:19.462Z,4.93
2018-08-18T13:32:24.870Z,3.57
2018-08-18T13:37:28.692Z,2.47
2018-08-18T13:42:38.953Z,2.57
2018-08-18T13:47:44.314Z,3.67
2018-08-18T13:52:49.479Z,3.73
2018-08-18T13:57:53.216Z,4.33
2018-08-18T14:02:57.054Z,3.23
2018-08-18T14:08:03.583Z,5.13
2018-08-18T14:13:07.613Z,3.03
2018-08-18T14:18:11.898Z,3.33
2018-08-18T14:23:15.962Z,3.13
2018-08-18T14:28:20.091Z,2.37
2018-08-18T14:33:23.872Z,2.07
2018-08-18T14:38:27.723Z,2.80
2018-08-18T14:43:37.002Z,4.37
2018-08-18T14:48:41.089Z,5.22
2018-08-18T14:53:45.154Z,4.40
2018-08-18T14:58:49.344Z,2.27
2018-08-18T15:03:53.385Z,4.30
2018-08-18T15:08:57.481Z,5.03
2018-08-18T15:14:01.649Z,5.57
2018-08-18T15:19:05.840Z,6.20
2018-08-18T15:24:09.857Z,4.50
2018-08-18T15:29:16.624Z,3.07
2018-08-18T15:34:20.693Z,4.30
2018-08-18T15:39:26.857Z,4.17
2018-08-18T15:44:30.926Z,3.90
2018-08-18T15:49:35.046Z,4.67
2018-08-18T15:54:38.864Z,4.73
2018-08-18T15:59:42.941Z,5.07
2018-08-18T16:04:47.025Z,4.60
2018-08-18T16:09:51.095Z,4.00
2018-08-18T16:14:55.267Z,5.70
2018-08-18T16:19:59.122Z,3.80
2018-08-18T16:25:02.964Z,3.87
2018-08-18T16:30:06.792Z,4.17
2018-08-18T16:35:11.944Z,4.70
2018-08-18T16:40:16.004Z,4.57
2018-08-18T16:45:20.085Z,4.40
2018-08-18T16:50:24.164Z,6.83
2018-08-18T16:55:30.127Z,2.57
2018-08-18T17:00:38.732Z,3.80
2018-08-18T17:05:42.798Z,4.77
2018-08-18T17:10:46.887Z,3.97
2018-08-18T17:15:51.113Z,4.50
2018-08-18T17:21:03.628Z,6.03
2018-08-18T17:26:07.452Z,3.53
2018-08-18T17:31:11.605Z,8.07
2018-08-18T17:36:15.662Z,3.60
2018-08-18T17:41:19.746Z,6.20
2018-08-18T17:46:23.576Z,6.57
2018-08-18T17:51:27.394Z,5.87
2018-08-18T17:56:34.540Z,6.07
2018-08-18T18:01:56.201Z,5.53
2018-08-18T18:07:00.866Z,5.33
2018-08-18T18:12:29.636Z,4.43
2018-08-18T18:17:33.693Z,4.27
2018-08-18T18:22:45.756Z,2.83
2018-08-18T18:27:50.288Z,4.40
2018-08-18T18:32:54.467Z,5.90
2018-08-18T18:38:00.478Z,4.40
2018-08-18T18:43:04.732Z,4.53
2018-08-18T18:48:12.787Z,3.60
2018-08-18T18:53:16.905Z,4.67
2018-08-18T18:58:20.998Z,4.20
2018-08-18T19:03:25.228Z,3.30
2018-08-18T19:08:29.343Z,4.50
2018-08-18T19:13:33.422Z,4.07
2018-08-18T19:18:37.517Z,4.35
2018-08-18T19:23:41.620Z,5.33
2018-08-18T19:28:45.982Z,4.50
2018-08-18T19:33:51.841Z,3.63
2018-08-18T19:38:55.909Z,3.07
2018-08-18T19:43:59.756Z,3.77
2018-08-18T19:49:03.683Z,5.60
2018-08-18T19:54:08.006Z,3.13
2018-08-18T19:59:12.077Z,3.30
2018-08-18T20:04:16.159Z,3.90
2018-08-18T20:09:20.269Z,6.47
2018-08-18T20:14:24.097Z,3.80
2018-08-18T20:19:28.202Z,5.90
2018-08-18T20:24:32.386Z,4.57
2018-08-18T20:29:36.432Z,2.37
2018-08-18T20:34:40.654Z,5.13
2018-08-18T20:39:44.457Z,6.63
2018-08-18T20:44:48.608Z,5.20
2018-08-18T20:49:52.800Z,5.50
2018-08-18T20:54:57.796Z,3.80
2018-08-18T21:00:01.982Z,6.83
2018-08-18T21:05:08.605Z,4.57
2018-08-18T21:10:13.445Z,4.27
2018-08-18T21:15:17.986Z,4.57
2018-08-18T21:20:22.060Z,5.53
2018-08-18T21:26:46.643Z,5.70
2018-08-18T21:31:50.788Z,5.73
2018-08-18T21:36:54.877Z,5.73
2018-08-18T21:41:58.706Z,5.10
2018-08-18T21:47:02.765Z,4.97
2018-08-18T21:52:06.854Z,6.13
2018-08-18T21:57:10.944Z,3.23
2018-08-18T22:02:15.033Z,5.10
2018-08-18T22:07:19.126Z,5.37
2018-08-18T22:12:23.200Z,5.53
2018-08-18T22:17:27.095Z,4.97
2018-08-18T22:22:31.244Z,7.77
2018-08-18T22:27:36.197Z,7.77
2018-08-18T22:32:42.070Z,5.93
2018-08-18T22:37:46.173Z,5.33
2018-08-18T22:42:50.012Z,4.87
2018-08-18T22:47:53.854Z,5.53
2018-08-18T22:52:57.996Z,5.77
2018-08-18T22:58:02.832Z,9.07
2018-08-18T23:03:06.695Z,7.70
2018-08-18T23:08:10.741Z,4.53
2018-08-18T23:13:14.581Z,5.83
2018-08-18T23:18:18.696Z,5.87
2018-08-18T23:23:22.764Z,6.03
2018-08-18T23:28:26.885Z,8.40
2018-08-18T23:33:32.099Z,5.50
2018-08-18T23:38:37.338Z,5.27
2018-08-18T23:43:41.432Z,6.17
2018-08-18T23:48:45.278Z,7.70
2018-08-18T23:53:49.402Z,6.40
2018-08-18T23:58:53.469Z,9.27
